Time;durP1;ratioP1;P1;durP2;ratioP2;P2;SDS_P1;SDS_P2;PMS_P1;PMS_P2;Temp;Humidity;BMP_temperature;BMP_pressure;BME280_temperature;BME280_humidity;BME280_pressure;Samples;Min_cycle;Max_cycle;Signal;HPM_P1;HPM_P2
2022/06/11 00:02:00;;;;;;;13.53;12.13;;;;;;;20.93;65.94;101619.19;5042096;28;20421;-74
2022/06/11 00:04:33;;;;;;;14.43;12.90;;;;;;;21.27;65.15;101614.97;5040210;28;20424;-73
2022/06/11 00:07:05;;;;;;;18.70;13.00;;;;;;;21.29;65.87;101614.03;5040117;28;20693;-73
2022/06/11 00:09:32;;;;;;;18.93;16.47;;;;;;;21.03;67.67;101612.78;5040944;28;20427;-70
2022/06/11 00:11:58;;;;;;;21.03;15.77;;;;;;;20.91;68.00;101615.69;5028612;28;20426;-71
2022/06/11 00:14:27;;;;;;;18.80;15.30;;;;;;;20.78;68.60;101617.72;5021103;28;20436;-70
2022/06/11 00:16:53;;;;;;;16.30;13.70;;;;;;;20.85;68.19;101618.44;5021428;28;20479;-70
2022/06/11 00:19:21;;;;;;;15.10;13.50;;;;;;;20.86;67.91;101613.13;5046394;28;20829;-70
2022/06/11 00:21:48;;;;;;;17.53;14.10;;;;;;;20.78;68.70;101617.72;5060477;28;20256;-71
2022/06/11 00:24:14;;;;;;;15.43;13.60;;;;;;;21.01;67.68;101621.66;5060644;28;20435;-71
2022/06/11 00:26:42;;;;;;;16.93;15.20;;;;;;;20.91;67.92;101618.34;5060695;28;20416;-71
2022/06/11 00:29:08;;;;;;;17.83;15.93;;;;;;;20.72;68.72;101612.53;5061104;28;20437;-72
2022/06/11 00:31:34;;;;;;;16.63;14.70;;;;;;;20.85;68.02;101624.63;5060636;28;20734;-71
2022/06/11 00:34:00;;;;;;;18.30;16.40;;;;;;;20.80;68.79;101615.03;5059741;28;20415;-70
2022/06/11 00:36:25;;;;;;;15.70;14.07;;;;;;;20.81;68.67;101611.44;5060687;28;20239;-71
2022/06/11 00:38:51;;;;;;;14.20;12.90;;;;;;;20.86;67.49;101601.63;5060553;28;20231;-70
2022/06/11 00:41:20;;;;;;;15.83;14.27;;;;;;;20.79;68.74;101608.84;5060437;28;20173;-70
2022/06/11 00:43:45;;;;;;;16.53;14.20;;;;;;;20.93;68.23;101605.94;5060660;28;20470;-71
2022/06/11 00:46:39;;;;;;;16.73;15.00;;;;;;;21.14;67.30;101595.81;5060267;28;20412;-70
2022/06/11 00:49:32;;;;;;;16.57;14.87;;;;;;;20.82;67.68;101597.31;5059736;28;20617;-68
2022/06/11 00:52:26;;;;;;;20.40;17.77;;;;;;;20.98;67.70;101597.88;5052837;28;20435;-68
2022/06/11 00:55:30;;;;;;;15.63;14.00;;;;;;;20.79;68.79;101603.53;5059010;28;20428;-68
2022/06/11 00:58:03;;;;;;;14.63;13.13;;;;;;;21.26;67.15;101595.53;5038496;28;20554;-68
2022/06/11 01:00:34;;;;;;;14.03;12.73;;;;;;;21.60;63.87;101597.47;5040167;28;20807;-67
2022/06/11 01:03:01;;;;;;;18.40;13.00;;;;;;;21.63;63.64;101604.50;5039858;28;20424;-70
2022/06/11 01:05:30;;;;;;;15.57;12.50;;;;;;;21.64;62.95;101604.44;5039290;28;20425;-69
2022/06/11 01:07:56;;;;;;;13.53;12.23;;;;;;;21.55;62.72;101606.44;5039917;28;20428;-69
2022/06/11 01:10:21;;;;;;;13.23;12.10;;;;;;;21.31;63.14;101603.38;5040032;28;20496;-70
2022/06/11 01:12:51;;;;;;;11.97;10.83;;;;;;;21.45;62.53;101603.97;5039908;28;20437;-71
2022/06/11 01:15:31;;;;;;;12.57;11.37;;;;;;;21.37;62.67;101600.59;5039904;28;20182;-70
2022/06/11 01:18:14;;;;;;;14.03;10.33;;;;;;;20.92;63.64;101604.19;5038813;28;20513;-72
2022/06/11 01:21:21;;;;;;;11.43;10.37;;;;;;;21.20;62.94;101596.53;5039690;28;20725;-74
2022/06/11 01:24:08;;;;;;;10.97;9.87;;;;;;;20.79;63.31;101595.59;5038987;28;20695;-69
2022/06/11 01:26:58;;;;;;;10.33;9.33;;;;;;;21.16;62.30;101586.91;5039579;28;20432;-70
2022/06/11 01:29:48;;;;;;;10.60;9.20;;;;;;;21.10;62.52;101588.81;5038990;28;20401;-68
2022/06/11 01:32:34;;;;;;;10.77;9.67;;;;;;;21.41;62.03;101586.38;5039485;28;20474;-69
2022/06/11 01:35:24;;;;;;;14.67;9.20;;;;;;;20.93;63.01;101575.88;5038818;28;20803;-69
2022/06/11 01:37:57;;;;;;;12.10;9.47;;;;;;;21.18;62.44;101574.47;5038593;28;20468;-69
2022/06/11 01:40:38;;;;;;;10.17;9.27;;;;;;;21.39;61.67;101580.22;5038782;28;20420;-69
2022/06/11 01:43:15;;;;;;;12.23;9.77;;;;;;;21.34;62.01;101574.16;5039353;28;20739;-69
2022/06/11 01:45:40;;;;;;;10.30;9.40;;;;;;;21.23;62.85;101573.50;5039300;28;20447;-69
2022/06/11 01:48:11;;;;;;;9.93;8.60;;;;;;;21.29;62.73;101565.44;5039370;28;20413;-69
2022/06/11 01:50:40;;;;;;;9.27;8.47;;;;;;;21.41;62.11;101559.84;5038567;28;20441;-68
2022/06/11 01:53:41;;;;;;;11.00;8.60;;;;;;;21.38;62.34;101562.56;5038332;28;20417;-69
2022/06/11 01:56:12;;;;;;;11.83;9.13;;;;;;;21.47;62.04;101559.72;5037673;28;20865;-69
2022/06/11 01:58:56;;;;;;;9.67;8.50;;;;;;;21.40;62.44;101554.56;5039131;28;20420;-70
2022/06/11 02:01:49;;;;;;;9.70;8.80;;;;;;;21.47;61.72;101554.41;5039228;28;20409;-70
2022/06/11 02:04:23;;;;;;;10.10;9.10;;;;;;;21.16;62.96;101548.88;5038814;28;20444;-70
2022/06/11 02:07:10;;;;;;;10.10;9.10;;;;;;;21.41;62.04;101537.75;5039102;28;20412;-69
2022/06/11 02:09:49;;;;;;;10.40;9.43;;;;;;;21.26;62.53;101545.16;5038875;28;20711;-68
2022/06/11 02:12:26;;;;;;;10.43;9.43;;;;;;;21.46;61.94;101541.16;5037990;28;20409;-69
2022/06/11 02:14:56;;;;;;;10.10;9.13;;;;;;;21.52;61.92;101541.03;5037652;28;20728;-69
2022/06/11 02:17:29;;;;;;;10.37;8.80;;;;;;;21.27;62.68;101543.34;5037894;28;20728;-69
2022/06/11 02:20:00;;;;;;;11.00;9.90;;;;;;;21.39;62.02;101547.53;5037884;28;20443;-69
2022/06/11 02:22:45;;;;;;;10.00;8.57;;;;;;;21.39;61.95;101544.88;5037726;28;20482;-68
2022/06/11 02:25:15;;;;;;;10.20;9.30;;;;;;;21.40;62.13;101542.19;5037899;28;20431;-68
2022/06/11 02:27:42;;;;;;;12.53;9.30;;;;;;;21.49;62.13;101538.44;5037970;28;20423;-69
2022/06/11 02:30:10;;;;;;;10.03;9.13;;;;;;;21.20;62.03;101546.16;5037919;28;20508;-69
2022/06/11 02:32:36;;;;;;;13.43;9.20;;;;;;;21.58;61.51;101542.69;5037655;28;20432;-69
2022/06/11 02:35:07;;;;;;;9.10;8.30;;;;;;;21.37;62.02;101547.56;5037954;28;20397;-69
2022/06/11 02:37:37;;;;;;;9.63;8.50;;;;;;;21.19;62.76;101548.84;5038206;28;20285;-70
2022/06/11 02:40:10;;;;;;;10.13;7.83;;;;;;;21.20;62.90;101543.50;5038327;28;20420;-69
2022/06/11 02:42:36;;;;;;;9.60;8.77;;;;;;;21.40;62.57;101554.56;5037465;28;20467;-69
2022/06/11 02:45:01;;;;;;;9.23;8.33;;;;;;;21.64;61.08;101545.22;5038192;28;20444;-70
2022/06/11 02:47:27;;;;;;;11.43;8.70;;;;;;;21.31;61.95;101552.97;5038715;28;20269;-69
2022/06/11 02:49:52;;;;;;;8.97;8.27;;;;;;;21.39;61.54;101551.03;5038085;28;20174;-70
2022/06/11 02:52:21;;;;;;;9.47;7.87;;;;;;;21.49;61.68;101544.63;5038028;28;20185;-69
2022/06/11 02:54:49;;;;;;;9.67;8.83;;;;;;;21.42;61.81;101552.75;5037874;28;20260;-69
2022/06/11 02:57:17;;;;;;;9.33;8.43;;;;;;;21.51;61.36;101542.81;5038017;28;20475;-69
2022/06/11 02:59:44;;;;;;;11.67;8.20;;;;;;;21.62;61.10;101549.66;5053919;28;20513;-70
2022/06/11 03:02:09;;;;;;;8.90;8.00;;;;;;;21.51;61.51;101547.22;5038828;28;20794;-70
2022/06/11 03:04:35;;;;;;;11.23;8.23;;;;;;;21.52;62.01;101546.34;5037862;28;20417;-69
2022/06/11 03:07:01;;;;;;;10.70;8.60;;;;;;;21.40;62.23;101552.78;5038009;28;20894;-69
2022/06/11 03:09:30;;;;;;;12.10;7.97;;;;;;;21.50;61.54;101550.78;5038567;28;20174;-69
2022/06/11 03:11:56;;;;;;;9.37;7.93;;;;;;;21.26;62.92;101546.94;5038046;28;20170;-70
2022/06/11 03:14:21;;;;;;;9.27;8.37;;;;;;;21.49;61.96;101547.28;5037818;28;20833;-69
2022/06/11 03:16:47;;;;;;;9.37;8.00;;;;;;;21.18;61.82;101549.75;5037944;28;20445;-70
2022/06/11 03:19:13;;;;;;;12.73;8.57;;;;;;;21.57;61.30;101549.78;5037817;28;20260;-70
2022/06/11 03:21:39;;;;;;;8.70;7.70;;;;;;;21.15;62.72;101555.13;5038043;28;20433;-70
2022/06/11 03:24:05;;;;;;;14.13;7.77;;;;;;;21.01;62.09;101553.63;5037715;28;20421;-69
2022/06/11 03:26:31;;;;;;;8.93;7.87;;;;;;;21.26;61.27;101547.81;5038711;28;20181;-69
2022/06/11 03:28:56;;;;;;;10.00;7.97;;;;;;;21.21;61.40;101547.03;5042390;28;20397;-70
2022/06/11 03:31:22;;;;;;;8.47;7.63;;;;;;;21.07;61.19;101555.28;5041821;28;20416;-70
2022/06/11 03:33:47;;;;;;;9.30;8.03;;;;;;;21.28;60.91;101550.41;5041820;28;20189;-70
2022/06/11 03:36:15;;;;;;;8.37;7.67;;;;;;;21.13;60.87;101556.91;5042140;28;20294;-70
2022/06/11 03:38:42;;;;;;;9.07;8.13;;;;;;;21.27;61.07;101551.31;5041805;28;20224;-70
2022/06/11 03:41:08;;;;;;;8.30;7.60;;;;;;;21.44;60.13;101553.59;5041600;28;20412;-70
2022/06/11 03:43:33;;;;;;;8.30;7.53;;;;;;;21.22;60.89;101554.06;5041962;28;20417;-70
2022/06/11 03:45:59;;;;;;;8.30;7.50;;;;;;;21.11;61.24;101550.81;5041395;28;20417;-70
2022/06/11 03:48:28;;;;;;;7.80;7.20;;;;;;;21.08;61.47;101551.72;5041432;28;20174;-70
2022/06/11 03:50:55;;;;;;;12.60;8.77;;;;;;;21.11;61.44;101546.34;5042157;28;20193;-70
2022/06/11 03:53:20;;;;;;;8.70;6.90;;;;;;;21.07;61.77;101544.69;5041225;28;20519;-70
2022/06/11 03:55:46;;;;;;;8.77;7.87;;;;;;;21.08;62.04;101550.84;5041492;28;20820;-70
2022/06/11 03:58:11;;;;;;;7.90;7.20;;;;;;;20.72;62.79;101553.38;5041743;28;20319;-70
2022/06/11 04:03:23;;;;;;;8.67;7.80;;;;;;;21.23;61.62;101561.13;5040775;28;20216;-69
2022/06/11 04:05:52;;;;;;;8.20;7.40;;;;;;;21.23;61.67;101552.28;5041257;28;20420;-69
2022/06/11 04:08:18;;;;;;;10.83;7.57;;;;;;;22.49;57.57;101546.59;5041174;28;20443;-69
2022/06/11 04:10:45;;;;;;;9.50;7.30;;;;;;;23.30;55.73;101549.63;5041624;28;20409;-69
2022/06/11 04:13:14;;;;;;;8.10;7.30;;;;;;;23.75;54.20;101553.56;5040840;28;20425;-69
2022/06/11 04:15:41;;;;;;;7.27;6.57;;;;;;;23.95;53.33;101558.25;5041021;28;20428;-70
2022/06/11 04:18:07;;;;;;;7.73;6.97;;;;;;;24.38;52.29;101562.09;5040780;28;20499;-70
2022/06/11 04:20:33;;;;;;;6.90;6.30;;;;;;;24.62;51.36;101562.19;5040908;28;20413;-70
2022/06/11 04:22:59;;;;;;;7.63;6.77;;;;;;;24.47;51.79;101564.44;5040955;28;20417;-70
2022/06/11 04:25:25;;;;;;;8.77;6.20;;;;;;;23.93;52.89;101565.44;5040715;28;20821;-70
2022/06/11 04:27:53;;;;;;;11.50;7.00;;;;;;;24.12;52.64;101560.34;5040788;28;20159;-70
2022/06/11 04:30:24;;;;;;;7.60;6.80;;;;;;;23.41;54.75;101559.94;5041144;28;20256;-70
2022/06/11 04:32:49;;;;;;;8.30;6.53;;;;;;;23.93;53.50;101547.66;5040733;28;20494;-69
2022/06/11 04:35:15;;;;;;;7.93;7.13;;;;;;;24.28;52.23;101556.22;5040650;28;20817;-70
2022/06/11 04:37:41;;;;;;;7.73;6.33;;;;;;;24.98;50.59;101556.44;5040717;28;20209;-69
2022/06/11 04:40:22;;;;;;;7.83;6.90;;;;;;;25.02;49.51;101550.06;5040664;28;20184;-72
2022/06/11 04:42:47;;;;;;;8.30;7.50;;;;;;;25.39;49.05;101556.63;5040526;28;20228;-68
2022/06/11 04:45:13;;;;;;;6.80;6.20;;;;;;;25.86;48.37;101566.34;5040537;28;20416;-69
2022/06/11 04:47:39;;;;;;;7.87;6.40;;;;;;;25.70;47.95;101555.41;5040402;28;20170;-69
2022/06/11 04:50:05;;;;;;;6.83;6.00;;;;;;;25.05;49.74;101558.78;5040911;28;20174;-69
2022/06/11 04:52:31;;;;;;;9.03;8.13;;;;;;;24.86;50.61;101563.09;5040122;28;20236;-69
2022/06/11 04:54:57;;;;;;;7.80;7.10;;;;;;;25.65;48.24;101557.38;5039671;28;20421;-69
2022/06/11 04:57:23;;;;;;;8.10;6.60;;;;;;;25.14;49.26;101546.91;5040654;28;20512;-69
2022/06/11 04:59:48;;;;;;;8.40;6.53;;;;;;;25.60;48.28;101554.03;5040314;28;20174;-69
2022/06/11 05:02:13;;;;;;;7.67;6.60;;;;;;;26.19;47.31;101558.69;5039913;28;20529;-69
2022/06/11 05:04:39;;;;;;;7.27;6.57;;;;;;;25.93;47.65;101566.94;5040623;28;20205;-70
2022/06/11 05:07:05;;;;;;;7.73;6.93;;;;;;;26.83;46.19;101553.25;5039964;28;20258;-69
2022/06/11 05:09:31;;;;;;;7.80;6.43;;;;;;;25.37;48.59;101564.72;5039908;28;20586;-69
2022/06/11 05:11:57;;;;;;;7.43;6.73;;;;;;;26.33;46.82;101558.13;5040559;28;20405;-69
2022/06/11 05:14:23;;;;;;;7.00;6.30;;;;;;;25.89;47.48;101569.72;5039727;28;20425;-69
2022/06/11 05:16:49;;;;;;;6.70;6.17;;;;;;;26.63;46.49;101562.16;5039882;28;20866;-69
2022/06/11 05:19:18;;;;;;;9.47;6.77;;;;;;;27.44;44.39;101562.06;5040318;28;20436;-70
2022/06/11 05:21:44;;;;;;;6.97;6.27;;;;;;;26.97;44.92;101566.03;5038990;28;20794;-70
2022/06/11 05:24:10;;;;;;;7.50;6.10;;;;;;;25.36;48.90;101578.97;5039589;28;20498;-70
2022/06/11 05:26:46;;;;;;;7.40;6.80;;;;;;;26.15;47.39;101578.47;5040213;28;20472;-70
2022/06/11 05:29:28;;;;;;;8.90;6.50;;;;;;;25.59;49.46;101584.31;5039821;28;20419;-70
2022/06/11 05:31:53;;;;;;;7.00;6.30;;;;;;;26.17;47.73;101581.97;5022482;28;20424;-70
2022/06/11 05:34:19;;;;;;;7.67;7.00;;;;;;;26.83;45.87;101575.56;5039478;28;20675;-69
2022/06/11 05:36:44;;;;;;;8.83;7.97;;;;;;;26.72;46.21;101577.84;5039299;28;20212;-70
2022/06/11 05:39:10;;;;;;;7.40;6.70;;;;;;;25.53;49.07;101590.78;5039891;28;20170;-69
2022/06/11 05:41:35;;;;;;;9.90;7.63;;;;;;;26.42;47.50;101582.72;5039419;28;20177;-70
2022/06/11 05:44:01;;;;;;;8.10;7.43;;;;;;;24.94;50.77;101586.78;5039396;28;20524;-70
2022/06/11 05:46:27;;;;;;;8.63;7.80;;;;;;;26.27;47.81;101589.59;5039889;28;20166;-70
2022/06/11 05:49:02;;;;;;;7.77;7.07;;;;;;;26.51;46.83;101580.50;5038554;28;20512;-69
2022/06/11 05:51:32;;;;;;;8.50;7.70;;;;;;;27.38;44.71;101588.19;5055213;28;20165;-70
2022/06/11 05:53:58;;;;;;;12.80;8.50;;;;;;;28.45;42.09;101577.53;5038490;28;20424;-69
2022/06/11 05:56:24;;;;;;;9.13;7.13;;;;;;;28.56;42.45;101577.88;5038482;28;20465;-69
2022/06/11 05:59:04;;;;;;;9.17;6.90;;;;;;;28.45;41.72;101568.66;5039013;28;20166;-69
2022/06/11 06:01:33;;;;;;;8.20;7.00;;;;;;;26.99;45.45;101569.50;5039089;28;20200;-70
2022/06/11 06:03:59;;;;;;;8.27;7.47;;;;;;;26.76;46.02;101571.41;5038310;28;20409;-69
2022/06/11 06:06:24;;;;;;;9.10;7.87;;;;;;;27.90;44.12;101568.69;5038910;28;20675;-70
2022/06/11 06:08:49;;;;;;;10.73;8.47;;;;;;;26.39;46.98;101583.72;5038897;28;20170;-68
2022/06/11 06:11:15;;;;;;;9.40;8.60;;;;;;;25.87;48.30;101578.72;5039382;28;20254;-69
2022/06/11 06:13:50;;;;;;;9.00;8.10;;;;;;;26.31;47.22;101585.84;5037996;28;20178;-70
2022/06/11 06:16:17;;;;;;;9.73;7.67;;;;;;;28.18;43.56;101579.84;5038639;28;20504;-69
2022/06/11 06:18:43;;;;;;;8.63;7.77;;;;;;;28.67;41.93;101585.38;5038443;28;20855;-69
2022/06/11 06:21:08;;;;;;;10.13;7.40;;;;;;;29.37;40.72;101581.59;5039017;28;20416;-69
2022/06/11 06:23:34;;;;;;;8.53;7.70;;;;;;;29.03;41.35;101589.69;5038767;28;20249;-69
2022/06/11 06:25:59;;;;;;;10.50;7.43;;;;;;;29.60;40.45;101584.81;5038634;28;20265;-69
2022/06/11 06:28:25;;;;;;;7.27;6.57;;;;;;;29.12;41.42;101596.38;5038516;28;20174;-69
2022/06/11 06:30:51;;;;;;;11.30;8.57;;;;;;;29.77;39.57;101591.88;5038883;28;20200;-69
2022/06/11 06:33:16;;;;;;;8.90;8.10;;;;;;;29.31;40.71;101585.50;5038279;28;20563;-69
2022/06/11 06:35:41;;;;;;;9.53;8.60;;;;;;;28.16;42.77;101595.16;5038403;28;20181;-69
2022/06/11 06:38:07;;;;;;;9.43;8.17;;;;;;;29.42;41.09;101589.38;5038777;28;20202;-69
2022/06/11 06:40:33;;;;;;;9.00;8.10;;;;;;;28.57;42.15;101603.72;5038271;28;20170;-70
2022/06/11 06:42:59;;;;;;;10.47;9.57;;;;;;;26.53;46.64;101599.16;5038120;28;20266;-70
2022/06/11 06:45:24;;;;;;;10.60;9.13;;;;;;;25.71;48.48;101605.22;5039013;28;20492;-70
2022/06/11 06:47:50;;;;;;;11.87;10.77;;;;;;;25.22;50.26;101613.31;5038207;28;20181;-70
2022/06/11 06:50:15;;;;;;;10.60;9.70;;;;;;;24.45;52.21;101619.63;5038170;28;20256;-69
2022/06/11 06:52:40;;;;;;;11.47;10.40;;;;;;;24.35;53.34;101615.50;5037796;28;20198;-69
2022/06/11 06:55:06;;;;;;;11.73;10.67;;;;;;;24.28;53.74;101619.31;5037943;28;20244;-69
2022/06/11 06:57:32;;;;;;;12.60;11.40;;;;;;;25.19;51.65;101611.66;5037255;28;20198;-69
2022/06/11 06:59:58;;;;;;;11.00;10.10;;;;;;;25.25;50.54;101610.53;5038228;28;20177;-70
2022/06/11 07:02:25;;;;;;;12.07;10.97;;;;;;;25.92;49.59;101613.28;5037841;28;20166;-69
2022/06/11 07:04:50;;;;;;;10.90;9.80;;;;;;;25.62;49.57;101614.47;5038030;28;20429;-70
2022/06/11 07:07:17;;;;;;;12.43;10.30;;;;;;;26.19;47.23;101614.81;5038470;28;20416;-70
2022/06/11 07:09:43;;;;;;;9.83;7.97;;;;;;;24.99;49.21;101612.38;5037955;28;20170;-69
2022/06/11 07:12:08;;;;;;;9.70;8.60;;;;;;;24.52;51.02;101605.13;5037752;28;20500;-69
2022/06/11 07:14:34;;;;;;;9.70;8.80;;;;;;;24.19;51.93;101610.72;5038128;28;20244;-69
2022/06/11 07:17:02;;;;;;;12.13;8.53;;;;;;;23.96;52.67;101610.59;5031229;28;20226;-68
2022/06/11 07:19:34;;;;;;;11.80;9.13;;;;;;;23.63;53.23;101614.25;5036960;28;20226;-68
2022/06/11 07:22:05;;;;;;;8.80;7.90;;;;;;;24.21;51.89;101616.84;5020449;28;20421;-68
2022/06/11 07:24:32;;;;;;;9.03;7.77;;;;;;;25.95;47.71;101615.81;5037536;28;20421;-68
2022/06/11 07:27:11;;;;;;;8.63;7.70;;;;;;;25.69;47.93;101609.75;5037272;28;20651;-68
2022/06/11 07:29:38;;;;;;;8.50;7.60;;;;;;;24.42;51.24;101618.84;5038550;28;20425;-68
2022/06/11 07:32:14;;;;;;;9.40;8.50;;;;;;;23.73;52.78;101619.28;5036841;28;20774;-68
2022/06/11 07:34:41;;;;;;;9.43;8.63;;;;;;;23.82;52.93;101621.66;5036943;28;20427;-69
2022/06/11 07:37:06;;;;;;;10.10;9.00;;;;;;;26.09;47.90;101610.81;5020317;28;20610;-69
2022/06/11 07:39:32;;;;;;;8.00;7.30;;;;;;;28.40;43.06;101603.72;5036840;28;20495;-69
2022/06/11 07:41:58;;;;;;;7.67;6.83;;;;;;;28.13;42.28;101596.19;5037641;28;20253;-69
2022/06/11 07:44:23;;;;;;;7.40;6.70;;;;;;;29.16;40.49;101595.25;5036929;28;20417;-69
2022/06/11 07:46:48;;;;;;;7.27;6.37;;;;;;;30.03;39.35;101593.94;5037077;28;20170;-70
2022/06/11 07:49:14;;;;;;;8.40;6.73;;;;;;;30.41;37.57;101588.06;5037294;28;20265;-69
2022/06/11 07:51:40;;;;;;;10.60;7.10;;;;;;;29.24;39.19;101602.88;5037803;28;20170;-69
2022/06/11 07:54:05;;;;;;;7.40;6.70;;;;;;;27.85;41.33;101599.34;5037400;28;20256;-71
2022/06/11 07:56:30;;;;;;;9.90;7.50;;;;;;;26.88;43.83;101600.28;5037391;28;20218;-69
2022/06/11 07:58:56;;;;;;;11.30;7.83;;;;;;;25.42;47.13;101609.91;5037635;28;20220;-71
2022/06/11 08:01:21;;;;;;;10.97;8.50;;;;;;;24.97;47.50;101619.56;5037434;28;20536;-69
2022/06/11 08:03:46;;;;;;;9.00;8.20;;;;;;;27.01;43.08;101611.31;5037560;28;20268;-69
2022/06/11 08:06:12;;;;;;;10.83;7.33;;;;;;;25.38;45.79;101616.28;5037436;28;20174;-69
2022/06/11 08:08:37;;;;;;;8.17;7.47;;;;;;;27.80;41.58;101612.09;5036593;28;20249;-69
2022/06/11 08:11:04;;;;;;;9.00;8.10;;;;;;;27.67;40.94;101610.03;5035191;28;20182;-69
2022/06/11 08:13:30;;;;;;;9.03;8.17;;;;;;;28.15;39.66;101614.88;5032908;28;20210;-68
2022/06/11 08:15:56;;;;;;;8.63;7.83;;;;;;;29.34;37.50;101609.50;5021054;28;20513;-69
2022/06/11 08:18:23;;;;;;;7.77;6.93;;;;;;;29.09;38.21;101611.78;5027848;28;20728;-69
2022/06/11 08:20:50;;;;;;;8.37;7.40;;;;;;;26.96;42.30;101617.81;5041269;28;20520;-69
2022/06/11 08:23:15;;;;;;;8.20;7.50;;;;;;;26.85;43.07;101611.13;5040749;28;20507;-68
2022/06/11 08:25:41;;;;;;;8.77;7.97;;;;;;;27.07;42.31;101607.47;5040529;28;20499;-69
2022/06/11 08:28:07;;;;;;;8.67;7.83;;;;;;;27.46;41.17;101611.94;5040891;28;20224;-69
2022/06/11 08:30:33;;;;;;;11.27;9.10;;;;;;;28.28;39.84;101594.53;5040856;28;20185;-68
2022/06/11 08:32:59;;;;;;;8.60;7.80;;;;;;;29.82;36.38;101597.84;5023182;28;20455;-68
2022/06/11 08:35:26;;;;;;;8.57;7.80;;;;;;;30.03;35.97;101593.09;5040937;28;20457;-69
2022/06/11 08:37:52;;;;;;;8.17;7.10;;;;;;;29.70;36.80;101586.88;5039832;28;20517;-68
2022/06/11 08:40:33;;;;;;;6.83;5.87;;;;;;;27.84;38.69;101590.44;5040222;28;20491;-67
2022/06/11 08:43:01;;;;;;;6.40;5.90;;;;;;;27.93;39.25;101593.59;5040652;28;20476;-67
2022/06/11 08:45:58;;;;;;;8.07;6.40;;;;;;;27.39;40.02;101594.44;5039901;28;20413;-68
2022/06/11 08:48:49;;;;;;;6.70;6.00;;;;;;;25.32;41.74;101612.03;5044874;28;20487;-68
2022/06/11 08:51:23;;;;;;;6.40;5.80;;;;;;;26.75;39.24;101612.50;5040229;28;20488;-69
2022/06/11 08:53:51;;;;;;;6.27;5.17;;;;;;;28.15;36.55;101605.00;5039387;28;20424;-69
2022/06/11 08:56:25;;;;;;;6.63;4.53;;;;;;;29.82;33.42;101603.22;5039989;28;20453;-69
2022/06/11 08:59:00;;;;;;;5.33;4.80;;;;;;;28.23;34.51;101601.94;5039472;28;20421;-69
2022/06/11 09:01:48;;;;;;;5.37;4.47;;;;;;;29.61;32.80;101602.66;5039461;28;20424;-69
2022/06/11 09:04:23;;;;;;;5.17;4.20;;;;;;;30.16;31.62;101601.28;5034478;28;20483;-70
2022/06/11 09:07:07;;;;;;;4.90;4.50;;;;;;;29.82;32.04;101605.91;5028846;28;20428;-69
2022/06/11 09:09:41;;;;;;;4.80;4.40;;;;;;;29.68;32.31;101601.34;5039495;28;20428;-69
2022/06/11 09:12:58;;;;;;;6.40;4.80;;;;;;;29.33;33.64;101601.53;5039674;28;20470;-68
2022/06/11 09:15:52;;;;;;;7.03;6.47;;;;;;;27.09;38.05;101613.63;5017250;28;20417;-69
2022/06/11 09:18:59;;;;;;;8.40;7.63;;;;;;;28.60;35.80;101609.88;5039408;28;20485;-69
2022/06/11 09:21:28;;;;;;;6.83;5.90;;;;;;;28.89;34.75;101614.59;5019883;28;20445;-71
2022/06/11 09:23:58;;;;;;;6.50;5.70;;;;;;;29.39;31.57;101610.09;5018638;28;20473;-69
2022/06/11 09:26:28;;;;;;;5.70;5.20;;;;;;;29.38;32.59;101618.25;5037252;28;20432;-70
2022/06/11 09:29:14;;;;;;;6.37;5.40;;;;;;;30.38;31.36;101601.72;5039355;28;20424;-69
2022/06/11 09:31:57;;;;;;;6.13;5.07;;;;;;;30.00;32.41;101612.94;5038211;28;20532;-70
2022/06/11 09:34:37;;;;;;;5.53;4.90;;;;;;;29.73;31.08;101605.50;5058525;28;20422;-70
2022/06/11 09:37:12;;;;;;;4.73;4.33;;;;;;;30.74;30.21;101608.53;5028889;28;20538;-69
2022/06/11 09:39:58;;;;;;;5.03;4.63;;;;;;;30.79;29.51;101607.38;5022735;28;20455;-69
2022/06/11 09:42:46;;;;;;;4.73;4.10;;;;;;;30.57;30.00;101623.03;5040037;28;20457;-69
2022/06/11 09:45:25;;;;;;;4.10;3.60;;;;;;;29.45;29.67;101618.78;5029798;28;20439;-68
2022/06/11 09:48:15;;;;;;;4.43;4.00;;;;;;;29.03;29.43;101615.66;5039144;28;20413;-70
2022/06/11 09:50:47;;;;;;;4.47;3.63;;;;;;;29.73;28.74;101623.47;5038290;28;20449;-70
2022/06/11 09:53:31;;;;;;;4.00;3.60;;;;;;;29.58;28.91;101627.88;5037376;28;20436;-70
2022/06/11 09:56:08;;;;;;;4.90;4.30;;;;;;;30.56;28.04;101615.91;5040975;28;20417;-69
2022/06/11 09:58:44;;;;;;;4.17;3.83;;;;;;;30.41;27.81;101627.56;5036663;28;20448;-69
2022/06/11 10:01:23;;;;;;;6.13;3.83;;;;;;;29.69;29.51;101640.72;5036366;28;20440;-69
2022/06/11 10:03:53;;;;;;;7.53;3.97;;;;;;;29.57;29.49;101628.84;5036872;28;20424;-68
2022/06/11 10:06:49;;;;;;;3.80;3.50;;;;;;;29.86;28.26;101634.38;5037066;28;20448;-68
2022/06/11 10:09:28;;;;;;;6.50;3.57;;;;;;;30.02;27.36;101637.91;5038351;28;20413;-69
2022/06/11 10:11:56;;;;;;;3.80;3.40;;;;;;;29.27;28.80;101642.16;5038752;28;20420;-69
2022/06/11 10:14:29;;;;;;;5.10;3.70;;;;;;;29.48;28.55;101629.34;5037745;28;20491;-69
2022/06/11 10:17:02;;;;;;;4.40;3.80;;;;;;;29.70;28.86;101640.63;5037453;28;20489;-70
2022/06/11 10:19:47;;;;;;;4.70;3.73;;;;;;;29.21;29.25;101649.56;5038414;28;20401;-69
2022/06/11 10:22:26;;;;;;;4.10;3.50;;;;;;;30.18;28.38;101655.84;5038514;28;20409;-68
2022/06/11 10:25:19;;;;;;;3.83;3.53;;;;;;;28.95;29.68;101639.38;5038207;28;20866;-71
2022/06/11 10:28:00;;;;;;;4.70;3.70;;;;;;;30.25;28.51;101651.81;5038445;28;20401;-69
2022/06/11 10:30:47;;;;;;;4.20;3.90;;;;;;;29.46;28.92;101652.72;5038448;28;20447;-69
2022/06/11 10:33:18;;;;;;;4.97;3.70;;;;;;;29.02;30.41;101648.81;5038202;28;20401;-69
2022/06/11 10:36:07;;;;;;;4.47;3.67;;;;;;;27.14;33.51;101665.13;5037899;28;20412;-69
2022/06/11 10:38:52;;;;;;;5.70;4.13;;;;;;;28.29;31.50;101649.03;5037400;28;20472;-69
2022/06/11 10:41:25;;;;;;;7.10;4.10;;;;;;;28.60;30.71;101655.50;5038313;28;20431;-69
2022/06/11 10:44:05;;;;;;;5.27;3.73;;;;;;;28.40;31.57;101658.25;5020826;28;20419;-69
2022/06/11 10:46:34;;;;;;;6.70;4.33;;;;;;;27.94;33.16;101665.00;5037558;28;20657;-69
2022/06/11 10:48:59;;;;;;;7.37;4.13;;;;;;;28.42;32.08;101660.84;5038020;28;20419;-69
2022/06/11 10:51:28;;;;;;;6.17;4.00;;;;;;;28.61;31.99;101662.59;5038134;28;20416;-69
2022/06/11 10:53:58;;;;;;;6.23;3.93;;;;;;;29.16;30.70;101657.00;5037456;28;20228;-68
2022/06/11 10:56:53;;;;;;;6.17;4.50;;;;;;;29.55;31.69;101661.16;5036779;28;20520;-68
2022/06/11 10:59:31;;;;;;;7.50;4.30;;;;;;;28.90;31.53;101661.09;5037097;28;20440;-69
2022/06/11 11:02:16;;;;;;;8.40;4.40;;;;;;;28.88;32.63;101668.38;5037040;28;20474;-69
2022/06/11 11:04:53;;;;;;;5.80;4.10;;;;;;;28.15;32.85;101669.34;5037777;28;20431;-69
2022/06/11 11:07:20;;;;;;;8.87;4.67;;;;;;;28.82;32.03;101664.19;5037847;28;20404;-72
2022/06/11 11:09:47;;;;;;;8.07;4.30;;;;;;;29.13;31.22;101675.09;5037237;28;20421;-69
2022/06/11 11:12:23;;;;;;;6.47;4.10;;;;;;;29.35;31.59;101677.50;5037887;28;20420;-71
2022/06/11 11:15:11;;;;;;;4.60;3.70;;;;;;;29.26;31.70;101672.66;5036919;28;20444;-68
2022/06/11 11:17:47;;;;;;;5.77;4.10;;;;;;;28.05;32.34;101676.13;5036531;28;20546;-69
2022/06/11 11:20:29;;;;;;;6.93;4.07;;;;;;;28.67;30.85;101681.97;5036749;28;20500;-70
2022/06/11 11:22:57;;;;;;;5.97;4.10;;;;;;;28.47;32.32;101680.28;5037909;28;20813;-69
2022/06/11 11:25:29;;;;;;;7.50;4.37;;;;;;;28.82;32.75;101676.72;5036937;28;20468;-69
2022/06/11 11:27:54;;;;;;;11.17;4.53;;;;;;;28.67;32.68;101673.03;5036983;28;20417;-69
2022/06/11 11:30:31;;;;;;;11.53;5.23;;;;;;;28.38;33.31;101675.38;5037619;28;20443;-69
2022/06/11 11:33:12;;;;;;;8.63;5.00;;;;;;;28.73;33.17;101680.78;5036913;28;20170;-69
2022/06/11 11:35:39;;;;;;;8.20;4.70;;;;;;;27.73;33.58;101673.16;5037708;28;20428;-68
2022/06/11 11:38:22;;;;;;;7.67;4.77;;;;;;;27.94;33.37;101679.31;5037221;28;20583;-68
2022/06/11 11:40:54;;;;;;;7.70;4.27;;;;;;;27.36;34.97;101680.19;5037630;28;20811;-69
2022/06/11 11:43:22;;;;;;;8.23;4.70;;;;;;;27.33;34.08;101686.59;5037605;28;20491;-69
2022/06/11 11:45:58;;;;;;;10.73;4.77;;;;;;;27.30;34.30;101692.06;5036619;28;20421;-69